Auburn, Massachusetts
Current Conditions -  °F | °C
As of 6:54 PM on Monday 24 Nov 2014 (Local Time) from KORH Reporting Station
Overcast Overcast  
Wind Chill: 59°   Ceiling: 1600
Heat Index: 59°   Visibility: 10mi
Dew Point: 55°   Wind: 17mph
Humidity: 87%   Direction: 230°SW
Pressure: 29.65"   Gusts: 32mph
Location:  42.18°N, 71.85°W
Report Text: KORH 242354Z 23015G28KT 10SM BKN016 OVC022 15/13 A2965 RMK AO2 PK WND 23029/2300 SLP043 60001 T01500128 10167 20150 53022 $
Loading
Personal Weather Stations






























Interactive Weather Map New forecast layout! Learn more

10-Day Weather Forecast

Advertisements
Track Severe Weather on mobile